createdAt,value
2017-10-19T16:25:05.378Z,34.85
2017-10-19T16:25:33.426Z,34.82
2017-10-19T16:26:01.519Z,34.88
2017-10-19T16:26:29.461Z,34.79
2017-10-19T16:26:57.479Z,34.86
2017-10-19T16:27:25.507Z,34.82
2017-10-19T16:27:53.579Z,34.83
2017-10-19T16:28:21.807Z,34.79
2017-10-19T16:28:49.851Z,34.85
2017-10-19T16:29:18.450Z,34.89
2017-10-19T16:29:46.455Z,34.94
2017-10-19T16:30:14.525Z,34.93
2017-10-19T16:30:42.449Z,35.03
2017-10-19T16:31:10.278Z,34.98
2017-10-19T16:31:38.231Z,35.01
2017-10-19T16:32:06.238Z,35.16
2017-10-19T16:32:34.064Z,35.16
2017-10-19T16:33:02.210Z,35.26
2017-10-19T16:33:30.210Z,35.26
2017-10-19T16:33:58.250Z,35.27
2017-10-19T16:34:26.308Z,35.34
2017-10-19T16:34:54.328Z,35.38
2017-10-19T16:35:22.352Z,35.49
2017-10-19T16:35:50.390Z,35.53
2017-10-19T16:36:18.443Z,35.54
2017-10-19T16:36:46.376Z,35.39
2017-10-19T16:37:14.417Z,35.26
2017-10-19T16:37:42.451Z,35.19
2017-10-19T16:38:10.481Z,34.96
2017-10-19T16:38:38.617Z,34.79
2017-10-19T16:39:06.751Z,34.56
2017-10-19T16:39:34.501Z,34.7
2017-10-19T16:40:03.220Z,34.63
2017-10-19T16:40:31.185Z,34.7
2017-10-19T16:40:59.124Z,34.7
2017-10-19T16:42:10.398Z,34.73
2017-10-19T16:42:38.426Z,34.71
2017-10-19T16:43:06.296Z,34.75
2017-10-19T16:43:34.226Z,34.71
2017-10-19T16:44:02.540Z,34.73
2017-10-19T16:44:30.561Z,34.71
2017-10-19T16:44:58.668Z,34.75
2017-10-19T16:45:26.921Z,34.62
2017-10-19T16:45:54.739Z,34.73
2017-10-19T16:46:22.677Z,34.71
2017-10-19T16:46:51.402Z,34.69
2017-10-19T16:47:19.459Z,34.7
2017-10-19T16:47:47.398Z,34.88
2017-10-19T16:48:15.231Z,34.94
2017-10-19T16:48:43.060Z,34.94
2017-10-19T16:49:11.084Z,35.01
2017-10-19T16:49:39.136Z,34.94
2017-10-19T16:50:07.072Z,34.97
2017-10-19T16:50:35.001Z,35.1
2017-10-19T16:51:02.855Z,35.16
2017-10-19T16:51:30.686Z,35.22
2017-10-19T16:51:58.640Z,35.22
2017-10-19T16:52:26.650Z,35.19
2017-10-19T16:52:54.614Z,35.15
2017-10-19T16:53:22.654Z,35.05
2017-10-19T16:53:50.700Z,35.03
2017-10-19T16:54:18.635Z,35.03
2017-10-19T16:54:46.699Z,34.91
2017-10-19T16:55:15.013Z,34.97
2017-10-19T16:55:42.982Z,34.96
2017-10-19T16:56:10.899Z,34.85
2017-10-19T16:56:38.754Z,34.85
2017-10-19T16:57:06.780Z,34.88
2017-10-19T16:57:34.909Z,34.86
2017-10-19T16:58:02.881Z,34.82
2017-10-19T16:58:30.832Z,34.88
2017-10-19T16:58:59.110Z,34.75
2017-10-19T16:59:27.046Z,34.89
2017-10-19T16:59:55.225Z,34.88
2017-10-19T17:00:23.264Z,34.85
2017-10-19T17:00:51.119Z,34.86
2017-10-19T17:01:18.962Z,34.86
2017-10-19T17:01:47.123Z,34.83
2017-10-19T17:02:15.165Z,34.81
2017-10-19T17:02:43.120Z,34.76
2017-10-19T17:03:10.956Z,34.79
2017-10-19T17:03:38.985Z,34.71
2017-10-19T17:04:06.849Z,34.6
2017-10-19T17:04:34.786Z,34.58
2017-10-19T17:05:02.902Z,34.53
2017-10-19T17:06:15.489Z,34.47
2017-10-19T17:06:43.403Z,34.48
2017-10-19T17:07:11.374Z,34.53
2017-10-19T17:07:39.717Z,34.47
2017-10-19T17:08:07.559Z,34.44
2017-10-19T17:08:35.639Z,34.4
2017-10-19T17:09:03.789Z,34.47
2017-10-19T17:09:31.871Z,34.48
2017-10-19T17:09:59.862Z,34.5
2017-10-19T17:10:27.862Z,34.58
2017-10-19T17:10:55.824Z,34.58
2017-10-19T17:11:23.794Z,34.63
2017-10-19T17:11:51.957Z,34.73
2017-10-19T17:12:19.875Z,34.66
2017-10-19T17:12:47.810Z,34.7
2017-10-19T17:13:15.862Z,34.78
2017-10-19T17:13:43.793Z,34.81
2017-10-19T17:14:11.917Z,34.89
2017-10-19T17:14:39.962Z,34.88
2017-10-19T17:15:08.095Z,35
2017-10-19T17:15:36.047Z,34.97
2017-10-19T17:16:03.888Z,35.03
2017-10-19T17:16:31.923Z,35.04
2017-10-19T17:16:59.877Z,35
2017-10-19T17:17:28.806Z,35.04
2017-10-19T17:17:56.668Z,35
2017-10-19T17:18:24.485Z,34.88
2017-10-19T17:18:52.526Z,34.91
2017-10-19T17:19:20.521Z,34.93
2017-10-19T17:19:48.655Z,34.97
2017-10-19T17:20:16.613Z,34.98
2017-10-19T17:20:44.532Z,35.03
2017-10-19T17:21:12.740Z,35.05
2017-10-19T17:21:40.800Z,35.18
2017-10-19T17:22:08.896Z,35.19
2017-10-19T17:22:36.853Z,35.25
2017-10-19T17:23:04.906Z,35.26
2017-10-19T17:23:33.277Z,35.39
2017-10-19T17:24:01.663Z,35.34
2017-10-19T17:24:29.674Z,35.34
2017-10-19T17:24:57.884Z,35.39
2017-10-19T17:25:26.166Z,35.22
2017-10-19T17:25:54.158Z,35.2
2017-10-19T17:26:22.335Z,35.07
2017-10-19T17:26:50.708Z,34.97
2017-10-19T17:27:18.804Z,34.94
2017-10-19T17:27:47.191Z,34.86
2017-10-19T17:28:15.517Z,34.79
2017-10-19T17:28:43.460Z,34.76
2017-10-19T17:29:11.595Z,34.78
2017-10-19T17:29:39.740Z,34.78
2017-10-19T17:30:07.976Z,34.69
2017-10-19T17:30:36.100Z,34.66
2017-10-19T17:31:04.116Z,34.65
2017-10-19T17:31:32.277Z,34.6
2017-10-19T17:32:00.142Z,34.55
2017-10-19T17:32:28.206Z,34.37
2017-10-19T17:32:56.211Z,34.35
2017-10-19T17:33:24.055Z,34.38
2017-10-19T17:33:52.125Z,34.29
2017-10-19T17:34:20.140Z,34.31
2017-10-19T17:34:48.055Z,34.28
2017-10-19T17:35:16.217Z,34.28
2017-10-19T17:35:44.184Z,34.22
2017-10-19T17:36:12.219Z,34.22
2017-10-19T17:36:40.155Z,34.18
2017-10-19T17:37:08.221Z,34.1
2017-10-19T17:37:36.565Z,34.07
2017-10-19T17:38:04.712Z,34.03
2017-10-19T17:38:32.549Z,34.02
2017-10-19T17:39:00.530Z,34.02
2017-10-19T17:39:28.588Z,34.03
2017-10-19T17:39:56.513Z,33.98
2017-10-19T17:40:24.335Z,34.06
2017-10-19T17:40:52.273Z,34.07
2017-10-19T17:41:20.349Z,34.07
2017-10-19T17:41:48.214Z,34.18
2017-10-19T17:42:16.100Z,34.18
2017-10-19T17:42:44.233Z,34.24
2017-10-19T17:43:12.371Z,34.22
2017-10-19T17:43:40.571Z,34.22
2017-10-19T17:44:08.395Z,34.26
2017-10-19T17:44:36.413Z,34.28
2017-10-19T17:45:04.356Z,34.29
2017-10-19T17:45:32.493Z,34.35
2017-10-19T17:46:00.567Z,34.4
2017-10-19T17:46:28.939Z,34.35
2017-10-19T17:46:56.979Z,34.41
2017-10-19T17:47:25.103Z,34.33
2017-10-19T17:47:53.159Z,34.33
2017-10-19T17:48:21.335Z,34.35
2017-10-19T17:48:49.360Z,34.33
2017-10-19T17:49:17.319Z,34.29
2017-10-19T17:49:45.185Z,34.32
2017-10-19T17:50:13.006Z,34.24
2017-10-19T17:50:41.872Z,34.29
2017-10-19T17:51:11.145Z,34.28
2017-10-19T17:51:39.173Z,34.21
2017-10-19T17:52:07.224Z,34.31
2017-10-19T17:52:35.228Z,34.31
2017-10-19T17:53:03.585Z,34.33
2017-10-19T17:53:31.606Z,34.41
2017-10-19T17:53:59.903Z,34.38
2017-10-19T17:54:27.791Z,34.53
2017-10-19T17:54:55.920Z,34.51
2017-10-19T17:55:23.844Z,34.62
2017-10-19T17:55:51.681Z,34.7
2017-10-19T17:56:19.613Z,34.73
2017-10-19T17:56:47.636Z,34.71
2017-10-19T17:57:15.371Z,34.81
2017-10-19T17:57:43.417Z,34.82
2017-10-19T17:58:11.238Z,34.89
2017-10-19T17:58:39.178Z,34.91
2017-10-19T17:59:07.321Z,34.98
2017-10-19T17:59:35.373Z,35
2017-10-19T18:00:03.470Z,35.08
2017-10-19T18:00:31.610Z,35.01
2017-10-19T18:00:59.663Z,35
2017-10-19T18:01:27.582Z,35.08
2017-10-19T18:01:55.653Z,35.13
2017-10-19T18:02:23.678Z,35.16
2017-10-19T18:02:51.839Z,35.16
2017-10-19T18:03:19.847Z,35.26
2017-10-19T18:03:47.976Z,35.19
2017-10-19T18:04:16.049Z,35.18
2017-10-19T18:04:43.853Z,35.2
2017-10-19T18:05:11.912Z,35.3
2017-10-19T18:05:40.042Z,35.27
2017-10-19T18:06:08.071Z,35.22
2017-10-19T18:06:35.898Z,35.23
2017-10-19T18:07:04.043Z,35.16
2017-10-19T18:07:32.053Z,35.25
2017-10-19T18:08:00.111Z,35.23
2017-10-19T18:08:28.042Z,35.15
2017-10-19T18:08:56.264Z,35.1
2017-10-19T18:09:24.303Z,35.18
2017-10-19T18:09:52.368Z,35.23
2017-10-19T18:10:20.287Z,35.18
2017-10-19T18:10:48.351Z,35.19
2017-10-19T18:11:16.743Z,35.2
2017-10-19T18:11:44.668Z,35.16
2017-10-19T18:12:12.627Z,35.23
2017-10-19T18:12:40.561Z,35.16
2017-10-19T18:13:08.507Z,35.22
2017-10-19T18:13:36.547Z,35.15
2017-10-19T18:14:04.515Z,35.19
2017-10-19T18:14:32.457Z,35.15
2017-10-19T18:15:00.518Z,35.18
2017-10-19T18:15:28.650Z,35.16
2017-10-19T18:15:56.723Z,35.08
2017-10-19T18:16:25.519Z,35.07
2017-10-19T18:16:53.370Z,35.1
2017-10-19T18:17:21.397Z,35.13
2017-10-19T18:17:49.412Z,35.16
2017-10-19T18:18:17.480Z,35.15
2017-10-19T18:18:45.536Z,35.18
2017-10-19T18:19:13.698Z,35.19
2017-10-19T18:19:41.812Z,35.16
2017-10-19T18:20:09.951Z,35.23
2017-10-19T18:20:37.784Z,35.18
2017-10-19T18:21:05.830Z,35.2
2017-10-19T18:21:33.559Z,35.18
2017-10-19T18:22:01.774Z,35.13
2017-10-19T18:22:29.982Z,35.15
2017-10-19T18:22:58.042Z,35.23
2017-10-19T18:23:25.986Z,35.34
2017-10-19T18:23:54.139Z,35.32
2017-10-19T18:24:22.172Z,35.3
2017-10-19T18:24:50.220Z,35.27
2017-10-19T18:25:18.169Z,35.27
2017-10-19T18:25:46.212Z,35.32
2017-10-19T18:26:14.129Z,35.39
2017-10-19T18:26:42.179Z,35.31
2017-10-19T18:27:10.100Z,35.34
2017-10-19T18:27:38.438Z,35.23
2017-10-19T18:28:06.377Z,35.23
2017-10-19T18:28:34.503Z,35.19
2017-10-19T18:29:02.495Z,35.19
2017-10-19T18:29:30.598Z,35.19
2017-10-19T18:29:58.536Z,35.13
2017-10-19T18:30:26.497Z,35.18
2017-10-19T18:30:54.542Z,35.19
2017-10-19T18:31:22.480Z,35.16
2017-10-19T18:31:50.585Z,35.19
2017-10-19T18:32:18.604Z,35.18
2017-10-19T18:32:46.459Z,35.18
2017-10-19T18:33:14.458Z,35.07
2017-10-19T18:33:42.498Z,35.1
2017-10-19T18:34:10.646Z,35.07
2017-10-19T18:34:38.567Z,35.05
2017-10-19T18:35:06.648Z,35.08
2017-10-19T18:35:34.641Z,35.03
2017-10-19T18:36:02.678Z,35.1
2017-10-19T18:36:30.424Z,35
2017-10-19T18:36:58.482Z,35.05
2017-10-19T18:37:27.232Z,35.08
2017-10-19T18:37:56.200Z,35.03
2017-10-19T18:38:24.356Z,35.1
2017-10-19T18:38:52.310Z,35.16
2017-10-19T18:39:20.311Z,35.18
2017-10-19T18:39:48.228Z,35.16
2017-10-19T18:40:16.371Z,35.16
2017-10-19T18:40:44.420Z,35.2
2017-10-19T18:41:12.540Z,35.23
2017-10-19T18:41:40.576Z,35.2
2017-10-19T18:42:08.648Z,35.18
2017-10-19T18:42:36.603Z,35.22
2017-10-19T18:43:04.735Z,35.13
2017-10-19T18:43:32.790Z,35.04
2017-10-19T18:44:00.652Z,35.08
2017-10-19T18:44:28.628Z,35.01
2017-10-19T18:44:56.675Z,34.97
2017-10-19T18:45:24.733Z,34.97
2017-10-19T18:45:52.779Z,34.96
2017-10-19T18:46:20.961Z,34.97
2017-10-19T18:46:48.831Z,34.96
2017-10-19T18:47:16.891Z,34.98
2017-10-19T18:47:44.949Z,34.98
2017-10-19T18:48:13.079Z,34.98
2017-10-19T18:48:41.293Z,34.97
2017-10-19T18:49:09.132Z,34.98
2017-10-19T18:49:37.371Z,35
2017-10-19T18:50:05.363Z,35.03
2017-10-19T18:50:33.393Z,34.97
2017-10-19T18:51:01.757Z,35.01
2017-10-19T18:51:29.893Z,35
2017-10-19T18:51:57.942Z,35.01
2017-10-19T18:52:25.702Z,35.03
2017-10-19T18:52:53.667Z,34.91
2017-10-19T18:53:21.798Z,34.89
2017-10-19T18:53:49.452Z,34.71
2017-10-19T18:54:17.414Z,34.71
2017-10-19T18:54:45.377Z,34.73
2017-10-19T18:55:13.409Z,34.65
2017-10-19T18:55:41.404Z,34.71
2017-10-19T18:56:09.373Z,34.63
2017-10-19T18:56:37.315Z,34.65
2017-10-19T18:57:05.185Z,34.65
2017-10-19T18:57:33.223Z,34.6
2017-10-19T18:58:01.254Z,34.63
2017-10-19T18:58:29.220Z,34.63
2017-10-19T18:58:57.141Z,34.62
2017-10-19T18:59:25.184Z,34.65
2017-10-19T18:59:53.243Z,34.63
2017-10-19T19:00:20.992Z,34.6
2017-10-19T19:00:49.013Z,34.6
2017-10-19T19:01:17.068Z,34.63
2017-10-19T19:01:45.090Z,34.63
2017-10-19T19:02:13.145Z,34.63
2017-10-19T19:02:41.165Z,34.66
2017-10-19T19:03:09.304Z,34.55
2017-10-19T19:03:37.148Z,34.58
2017-10-19T19:04:05.091Z,34.56
2017-10-19T19:04:33.151Z,34.56
2017-10-19T19:05:01.199Z,34.56
2017-10-19T19:05:29.536Z,34.55
2017-10-19T19:05:57.580Z,34.43
2017-10-19T19:06:25.409Z,34.46
2017-10-19T19:06:53.350Z,34.41
2017-10-19T19:07:21.390Z,34.41
2017-10-19T19:07:49.474Z,34.33
2017-10-19T19:08:17.772Z,34.37
2017-10-19T19:08:45.802Z,34.35
2017-10-19T19:09:13.923Z,34.35
2017-10-19T19:09:42.138Z,34.29
2017-10-19T19:10:10.064Z,34.33
2017-10-19T19:10:37.894Z,34.4
2017-10-19T19:11:05.909Z,34.4
2017-10-19T19:11:33.944Z,34.37
2017-10-19T19:12:01.990Z,34.4
2017-10-19T19:12:29.946Z,34.33
2017-10-19T19:12:57.869Z,34.29
2017-10-19T19:13:26.249Z,34.26
2017-10-19T19:13:54.376Z,34.26
2017-10-19T19:14:22.343Z,34.28
2017-10-19T19:14:50.361Z,34.31
2017-10-19T19:15:18.385Z,34.25
2017-10-19T19:15:46.514Z,34.29
2017-10-19T19:16:14.537Z,34.28
2017-10-19T19:16:42.759Z,34.26
2017-10-19T19:17:10.613Z,34.25
2017-10-19T19:17:38.639Z,34.21
2017-10-19T19:18:06.948Z,34.19
2017-10-19T19:18:34.766Z,34.25
2017-10-19T19:19:02.786Z,34.11
2017-10-19T19:19:30.911Z,34.25
2017-10-19T19:19:58.776Z,34.13
2017-10-19T19:20:26.911Z,34.29
2017-10-19T19:20:54.737Z,34.29
2017-10-19T19:21:22.752Z,34.24
2017-10-19T19:21:50.579Z,34.37
2017-10-19T19:22:18.513Z,34.35
2017-10-19T19:22:46.495Z,34.35
2017-10-19T19:23:14.320Z,34.37
2017-10-19T19:23:42.449Z,34.41
2017-10-19T19:24:10.398Z,34.33
2017-10-19T19:24:39.378Z,34.32
2017-10-19T19:25:07.484Z,34.25
2017-10-19T19:25:35.539Z,34.25
2017-10-19T19:26:03.474Z,34.22
2017-10-19T19:26:31.413Z,34.21
2017-10-19T19:26:59.366Z,34.24
2017-10-19T19:27:27.514Z,34.18
2017-10-19T19:27:55.711Z,34.14
2017-10-19T19:28:23.629Z,34.1
2017-10-19T19:28:51.671Z,33.98
2017-10-19T19:29:19.624Z,34.04
2017-10-19T19:29:47.574Z,33.97
2017-10-19T19:30:15.506Z,33.97
2017-10-19T19:30:43.510Z,33.97
2017-10-19T19:31:11.764Z,34.04
2017-10-19T19:31:39.721Z,33.95
2017-10-19T19:32:07.887Z,33.95
2017-10-19T19:32:35.764Z,33.98
2017-10-19T19:33:03.697Z,34.02
2017-10-19T19:33:31.735Z,34.09
2017-10-19T19:33:59.590Z,34.07
2017-10-19T19:34:27.607Z,34.13
2017-10-19T19:34:55.711Z,34.02
2017-10-19T19:35:23.851Z,34.04
2017-10-19T19:35:52.002Z,34.14
2017-10-19T19:36:20.043Z,34.04
2017-10-19T19:36:48.067Z,34.22
2017-10-19T19:37:16.315Z,34.24
2017-10-19T19:37:44.453Z,34.16
2017-10-19T19:38:13.365Z,34.24
2017-10-19T19:38:41.416Z,34.22
2017-10-19T19:39:09.803Z,34.21
2017-10-19T19:39:37.970Z,34.25
2017-10-19T19:40:06.242Z,34.14
2017-10-19T19:40:34.291Z,34.19
2017-10-19T19:41:02.109Z,34.18
2017-10-19T19:41:30.201Z,34.24
2017-10-19T19:41:58.310Z,34.16
2017-10-19T19:42:26.321Z,34.22
2017-10-19T19:42:54.658Z,34.16
2017-10-19T19:43:22.594Z,34.09
2017-10-19T19:43:50.516Z,34.11
2017-10-19T19:44:18.537Z,34.03
2017-10-19T19:44:46.572Z,33.95
2017-10-19T19:45:15.485Z,34
2017-10-19T19:45:43.432Z,33.89
2017-10-19T19:46:11.536Z,33.89
2017-10-19T19:46:39.582Z,33.85
2017-10-19T19:47:07.532Z,33.79
2017-10-19T19:47:35.488Z,33.77
2017-10-19T19:48:03.437Z,33.81
2017-10-19T19:48:31.280Z,33.79
2017-10-19T19:48:59.379Z,33.75
2017-10-19T19:49:27.281Z,33.65
2017-10-19T19:49:55.211Z,33.65
2017-10-19T19:50:23.344Z,33.6
2017-10-19T19:50:51.279Z,33.6
2017-10-19T19:51:19.124Z,33.53
2017-10-19T19:51:46.942Z,33.42
2017-10-19T19:52:14.824Z,33.48
2017-10-19T19:52:42.872Z,33.54
2017-10-19T19:53:10.786Z,33.48
2017-10-19T19:53:38.941Z,33.54
2017-10-19T19:54:07.057Z,33.45
2017-10-19T19:54:34.988Z,33.48
2017-10-19T19:55:03.247Z,33.48
2017-10-19T19:55:31.185Z,33.45
2017-10-19T19:55:59.101Z,33.55
2017-10-19T19:56:27.210Z,33.47
2017-10-19T19:57:37.751Z,33.4
2017-10-19T19:58:05.779Z,33.5
2017-10-19T19:58:33.737Z,33.54
2017-10-19T19:59:01.662Z,33.45
2017-10-19T19:59:29.610Z,33.45
2017-10-19T19:59:57.710Z,33.45
2017-10-19T20:00:25.553Z,33.4
2017-10-19T20:00:53.592Z,33.4
2017-10-19T20:01:21.506Z,33.39
2017-10-19T20:01:49.663Z,33.38
2017-10-19T20:02:17.663Z,33.32
2017-10-19T20:02:45.706Z,33.36
2017-10-19T20:03:13.647Z,33.28
2017-10-19T20:03:41.769Z,33.32
2017-10-19T20:04:09.724Z,33.28
2017-10-19T20:04:37.658Z,33.26
2017-10-19T20:05:05.745Z,33.28
2017-10-19T20:05:33.687Z,33.22
2017-10-19T20:06:01.794Z,33.26
2017-10-19T20:06:29.896Z,33.29
2017-10-19T20:06:57.954Z,33.23
2017-10-19T20:07:26.018Z,33.28
2017-10-19T20:07:54.077Z,33.23
2017-10-19T20:08:21.977Z,33.22
2017-10-19T20:08:49.690Z,33.36
2017-10-19T20:09:17.727Z,33.32
2017-10-19T20:09:45.589Z,33.32
2017-10-19T20:10:13.676Z,33.39
2017-10-19T20:10:41.489Z,33.32
2017-10-19T20:11:09.563Z,33.32
2017-10-19T20:11:37.562Z,33.39
2017-10-19T20:12:05.472Z,33.29
2017-10-19T20:12:33.588Z,33.36
2017-10-19T20:13:01.705Z,33.31
2017-10-19T20:13:29.783Z,33.28
2017-10-19T20:13:57.822Z,33.33
2017-10-19T20:14:25.764Z,33.29
2017-10-19T20:14:54.086Z,33.32
2017-10-19T20:15:22.102Z,33.32
2017-10-19T20:15:49.966Z,33.38
2017-10-19T20:16:32.646Z,33.28
2017-10-19T20:17:00.562Z,33.31
2017-10-19T20:17:28.466Z,33.22
2017-10-19T20:17:56.609Z,33.28
2017-10-19T20:18:25.459Z,33.22
2017-10-19T20:18:53.590Z,33.31
2017-10-19T20:19:21.963Z,33.31
2017-10-19T20:19:49.884Z,33.26
2017-10-19T20:20:17.994Z,33.19
2017-10-19T20:20:46.087Z,33.22
2017-10-19T20:21:14.112Z,33.19
2017-10-19T20:21:41.959Z,33.22
2017-10-19T20:22:09.852Z,33.2
2017-10-19T20:22:37.840Z,33.19
2017-10-19T20:23:05.874Z,33.23
2017-10-19T20:23:33.780Z,33.2
2017-10-19T20:24:01.846Z,33.23
2017-10-19T20:24:29.879Z,33.22
2017-10-19T20:24:57.858Z,33.17
2017-10-19T20:26:08.656Z,33.19
2017-10-19T20:26:51.303Z,33.19
2017-10-19T20:27:19.448Z,33.26
2017-10-19T20:27:47.368Z,33.1
2017-10-19T20:28:15.410Z,33.15
2017-10-19T20:28:43.428Z,33.1
2017-10-19T20:29:11.365Z,33.05
2017-10-19T20:29:39.494Z,33.08
2017-10-19T20:30:07.617Z,33.09
2017-10-19T20:30:35.634Z,32.98
2017-10-19T20:31:03.440Z,32.97
2017-10-19T20:31:31.495Z,32.97
2017-10-19T20:31:59.501Z,32.98
2017-10-19T20:32:27.513Z,32.94
2017-10-19T20:32:55.369Z,33.09
2017-10-19T20:33:23.434Z,33.05
2017-10-19T20:33:51.257Z,33.08
2017-10-19T20:34:19.931Z,33.08
2017-10-19T20:34:47.853Z,32.98
2017-10-19T20:35:15.919Z,32.88
2017-10-19T20:35:43.937Z,32.94
2017-10-19T20:36:11.604Z,32.91
2017-10-19T20:36:39.633Z,32.83
2017-10-19T20:37:07.764Z,32.83
2017-10-19T20:37:35.790Z,32.82
2017-10-19T20:38:03.711Z,32.79
2017-10-19T20:38:31.657Z,32.79
2017-10-19T20:38:59.666Z,32.83
2017-10-19T20:39:27.505Z,32.78
2017-10-19T20:39:55.341Z,32.71
2017-10-19T20:40:23.475Z,32.76
2017-10-19T20:40:51.487Z,32.76
2017-10-19T20:41:19.418Z,32.71
2017-10-19T20:41:47.365Z,32.73
2017-10-19T20:42:15.392Z,32.82
2017-10-19T20:42:43.403Z,32.79
2017-10-19T20:43:11.180Z,32.72
2017-10-19T20:43:39.310Z,32.73
2017-10-19T20:44:07.399Z,32.73
2017-10-19T20:44:35.522Z,32.72
2017-10-19T20:45:03.496Z,32.67
2017-10-19T20:45:31.435Z,32.73
2017-10-19T20:45:59.464Z,32.67
2017-10-19T20:46:27.589Z,32.66
2017-10-19T20:46:55.426Z,32.59
2017-10-19T20:47:23.782Z,32.63
2017-10-19T20:47:51.915Z,32.54
2017-10-19T20:48:34.454Z,32.6
2017-10-19T20:49:02.325Z,32.54
2017-10-19T20:49:30.482Z,32.64
2017-10-19T20:49:58.500Z,32.57
2017-10-19T20:50:26.618Z,32.57
2017-10-19T20:50:54.650Z,32.59
2017-10-19T20:51:22.778Z,32.57
2017-10-19T20:51:50.822Z,32.54
2017-10-19T20:52:19.059Z,32.54
2017-10-19T20:52:47.001Z,32.57
2017-10-19T20:53:14.905Z,32.53
2017-10-19T20:53:42.836Z,32.56
2017-10-19T20:54:10.657Z,32.49
2017-10-19T20:54:38.677Z,32.53
2017-10-19T20:55:06.497Z,32.48
2017-10-19T20:55:34.496Z,32.54
2017-10-19T20:56:02.217Z,32.51
2017-10-19T20:56:30.125Z,32.48
2017-10-19T20:56:58.043Z,32.49
2017-10-19T20:57:25.973Z,32.51
2017-10-19T20:57:54.006Z,32.44
2017-10-19T20:58:21.961Z,32.39
2017-10-19T20:58:50.116Z,32.37
2017-10-19T20:59:18.260Z,32.39
2017-10-19T20:59:46.483Z,32.3
2017-10-19T21:00:14.422Z,32.31
2017-10-19T21:00:42.515Z,32.38
2017-10-19T21:01:10.465Z,32.3
2017-10-19T21:01:38.494Z,32.34
2017-10-19T21:02:06.450Z,32.3
2017-10-19T21:02:34.271Z,32.31
2017-10-19T21:03:02.640Z,32.23
2017-10-19T21:03:30.547Z,32.23
2017-10-19T21:03:58.576Z,32.23
2017-10-19T21:04:26.735Z,32.26
2017-10-19T21:04:54.763Z,32.23
2017-10-19T21:05:22.851Z,32.19
2017-10-19T21:05:50.860Z,32.26
2017-10-19T21:06:18.784Z,32.24
2017-10-19T21:06:46.848Z,32.12
2017-10-19T21:07:14.894Z,32.15
2017-10-19T21:07:43.003Z,32.07
2017-10-19T21:08:10.948Z,32.09
2017-10-19T21:08:38.960Z,32.11
2017-10-19T21:09:06.818Z,32.2
2017-10-19T21:09:34.830Z,32.12
2017-10-19T21:10:02.983Z,32.12
2017-10-19T21:10:31.234Z,32.08
2017-10-19T21:10:59.282Z,32.05
2017-10-19T21:11:27.201Z,32.17
2017-10-19T21:11:55.313Z,32.04
2017-10-19T21:12:23.332Z,32
2017-10-19T21:12:51.076Z,31.98
2017-10-19T21:13:18.940Z,31.98
2017-10-19T21:13:46.978Z,31.92
2017-10-19T21:14:14.906Z,31.97
2017-10-19T21:14:42.713Z,31.93
2017-10-19T21:15:10.727Z,31.9
2017-10-19T21:15:38.539Z,31.93
2017-10-19T21:16:20.963Z,31.79
2017-10-19T21:16:49.169Z,31.79
2017-10-19T21:17:17.083Z,31.77
2017-10-19T21:17:45.110Z,31.74
2017-10-19T21:18:13.030Z,31.7
2017-10-19T21:18:41.798Z,31.74
2017-10-19T21:19:09.726Z,31.67
2017-10-19T21:19:37.590Z,31.78
2017-10-19T21:20:05.624Z,31.72
2017-10-19T21:20:33.631Z,31.67
2017-10-19T21:21:02.507Z,31.67
2017-10-19T21:21:30.405Z,31.64
2017-10-19T21:21:58.440Z,31.63
2017-10-19T21:22:26.600Z,31.62
2017-10-19T21:23:09.230Z,31.62
2017-10-19T21:23:37.054Z,31.6
2017-10-19T21:24:05.176Z,31.59
2017-10-19T21:24:33.199Z,31.57
2017-10-19T21:25:01.331Z,31.52
2017-10-19T21:25:29.375Z,31.5
2017-10-19T21:25:57.387Z,31.54
2017-10-19T21:26:25.520Z,31.42
2017-10-19T21:26:53.543Z,31.44
2017-10-19T21:27:21.541Z,31.35
2017-10-19T21:27:49.676Z,31.33
2017-10-19T21:28:17.579Z,31.41
2017-10-19T21:28:45.501Z,31.41
2017-10-19T21:29:13.620Z,31.3
2017-10-19T21:29:41.718Z,31.37
2017-10-19T21:30:09.824Z,31.25
2017-10-19T21:30:37.852Z,31.29
2017-10-19T21:31:05.784Z,31.22
2017-10-19T21:31:33.813Z,31.29
2017-10-19T21:32:01.634Z,31.25
2017-10-19T21:32:29.672Z,31.23
2017-10-19T21:32:57.724Z,31.22
2017-10-19T21:33:25.744Z,31.22
2017-10-19T21:33:53.877Z,31.26
2017-10-19T21:34:21.904Z,31.11
2017-10-19T21:34:50.038Z,31.15
2017-10-19T21:35:17.957Z,31.14
2017-10-19T21:35:46.005Z,31.1
2017-10-19T21:36:14.140Z,31.02
2017-10-19T21:36:42.177Z,31.04
2017-10-19T21:37:10.228Z,31.1
2017-10-19T21:37:38.265Z,30.99
2017-10-19T21:38:06.168Z,30.93
2017-10-19T21:38:34.181Z,30.92
2017-10-19T21:39:02.209Z,30.91
2017-10-19T21:39:30.229Z,30.91
2017-10-19T21:39:58.316Z,30.95
2017-10-19T21:40:26.382Z,30.93
2017-10-19T21:40:54.585Z,30.95
2017-10-19T21:41:22.506Z,30.78
2017-10-19T21:41:50.539Z,30.86
2017-10-19T21:42:18.757Z,30.74
2017-10-19T21:42:46.780Z,30.83
2017-10-19T21:43:14.801Z,30.76
2017-10-19T21:43:42.742Z,30.78
2017-10-19T21:44:10.791Z,30.78
2017-10-19T21:44:39.065Z,30.73
2017-10-19T21:45:06.989Z,30.74
2017-10-19T21:45:35.085Z,30.78
2017-10-19T21:46:03.131Z,30.62
2017-10-19T21:46:31.126Z,30.67
2017-10-19T21:46:59.255Z,30.61
2017-10-19T21:47:27.343Z,30.56
2017-10-19T21:47:55.045Z,30.54
2017-10-19T21:48:22.935Z,30.48
2017-10-19T21:48:50.970Z,30.49
2017-10-19T21:49:19.010Z,30.43
2017-10-19T21:49:46.922Z,30.43
2017-10-19T21:50:14.837Z,30.38
2017-10-19T21:50:42.876Z,30.44
2017-10-19T21:51:10.950Z,30.43
2017-10-19T21:51:38.987Z,30.29
2017-10-19T21:52:06.922Z,30.26
2017-10-19T21:52:34.936Z,30.21
2017-10-19T21:53:02.964Z,30.13
2017-10-19T21:53:31.090Z,29.95
2017-10-19T21:53:58.995Z,29.87
2017-10-19T21:54:26.988Z,29.79
2017-10-19T21:54:55.125Z,29.73
2017-10-19T21:55:22.857Z,29.57
2017-10-19T21:55:50.972Z,29.37
2017-10-19T21:56:18.998Z,29.3
2017-10-19T21:56:47.138Z,29.1
2017-10-19T21:57:29.659Z,28.87
2017-10-19T21:57:57.469Z,28.8
2017-10-19T21:58:25.383Z,28.55
2017-10-19T21:58:53.419Z,28.3
2017-10-19T21:59:21.337Z,28.16
2017-10-19T21:59:49.457Z,28.03
2017-10-19T22:00:17.347Z,27.76
2017-10-19T22:00:45.390Z,27.61
2017-10-19T22:01:13.272Z,27.47
2017-10-19T22:01:41.090Z,27.29
2017-10-19T22:02:08.811Z,27.15
2017-10-19T22:02:36.729Z,26.97
2017-10-19T22:03:04.854Z,26.82
2017-10-19T22:03:32.868Z,26.85
2017-10-19T22:04:00.898Z,26.73
2017-10-19T22:04:28.986Z,26.55
2017-10-19T22:04:57.252Z,26.48
2017-10-19T22:05:25.842Z,26.42
2017-10-19T22:05:54.314Z,26.36
2017-10-19T22:06:22.805Z,26.3
2017-10-19T22:06:51.305Z,26.23
2017-10-19T22:07:19.601Z,26.06
2017-10-19T22:07:48.080Z,25.96
2017-10-19T22:08:16.367Z,25.83
2017-10-19T22:08:44.825Z,25.81
2017-10-19T22:09:13.289Z,25.56
2017-10-19T22:09:41.857Z,25.56
2017-10-19T22:10:10.437Z,25.41
2017-10-19T22:10:38.984Z,25.29
2017-10-19T22:11:07.311Z,25.29
2017-10-19T22:11:35.487Z,25.26
2017-10-19T22:12:03.374Z,25.11
2017-10-19T22:12:31.415Z,25.09
2017-10-19T22:12:59.444Z,25.01
2017-10-19T22:13:27.524Z,24.85
2017-10-19T22:13:55.556Z,24.93
2017-10-19T22:14:23.488Z,24.79
2017-10-19T22:14:53.142Z,24.79
2017-10-19T22:15:21.300Z,24.79
2017-10-19T22:15:49.650Z,24.74
2017-10-19T22:16:18.047Z,24.74
2017-10-19T22:16:46.361Z,24.61
2017-10-19T22:17:14.322Z,24.56
2017-10-19T22:17:42.607Z,24.62
2017-10-19T22:18:11.590Z,24.55
2017-10-19T22:18:39.895Z,24.55
2017-10-19T22:19:08.354Z,24.61
2017-10-19T22:19:36.737Z,24.51
2017-10-19T22:20:05.102Z,24.5
2017-10-19T22:20:33.369Z,24.53
2017-10-19T22:21:01.313Z,24.47
2017-10-19T22:21:29.402Z,24.44
2017-10-19T22:21:57.637Z,24.4
2017-10-19T22:22:25.994Z,24.4
2017-10-19T22:22:54.431Z,24.37
2017-10-19T22:23:22.520Z,24.34
2017-10-19T22:23:50.516Z,24.36
2017-10-19T22:24:18.384Z,24.25
2017-10-19T22:24:46.513Z,24.24
2017-10-19T22:25:14.510Z,24.21
2017-10-19T22:25:42.319Z,24.24
2017-10-19T22:26:10.352Z,24.21
2017-10-19T22:26:38.446Z,24.21
2017-10-19T22:27:06.405Z,24.18
2017-10-19T22:27:34.403Z,24.16
2017-10-19T22:28:02.423Z,24.18
2017-10-19T22:28:30.460Z,24.16
2017-10-19T22:28:58.284Z,24.19
2017-10-19T22:29:26.504Z,24.16
2017-10-19T22:29:54.516Z,24.21
2017-10-19T22:30:22.617Z,24.16
2017-10-19T22:30:50.758Z,24.16
2017-10-19T22:31:18.685Z,24.04
2017-10-19T22:31:46.761Z,24.07